Fletcher, Vermont
Current Conditions -  °F | °C
As of 3:01 PM on Wednesday 17 Dec 2014 (Local Time) from KMVL Reporting Station
Haze Haze  
Wind Chill: 35°   Ceiling: 2400
Heat Index: 35°   Visibility: 1.2mi
Dew Point: 34°   Wind: 0mph
Humidity: 96%   Direction: NA
Pressure: 29.75"   Gusts: NA
Location:  44.6543°N, 72.8545°W
Report Text: KMVL 172001Z AUTO 00000KT 1 1/4SM BR FEW007 BKN024 OVC032 02/01 A2975 RMK AO2 T00170011 TSNO
Loading
Personal Weather Stations






























Interactive Weather Map New forecast layout! Learn more

10-Day Weather Forecast

Advertisements
Track Severe Weather on mobile